createdAt,value
2019-04-03T00:01:48.731Z,12.60
2019-04-03T00:04:19.572Z,12.60
2019-04-03T00:06:49.330Z,12.60
2019-04-03T00:09:19.045Z,12.60
2019-04-03T00:11:48.825Z,12.60
2019-04-03T00:14:18.550Z,12.60
2019-04-03T00:16:48.258Z,12.60
2019-04-03T00:19:18.166Z,12.60
2019-04-03T00:21:50.183Z,12.60
2019-04-03T00:24:22.231Z,12.60
2019-04-03T00:26:52.962Z,12.60
2019-04-03T00:29:22.947Z,12.70
2019-04-03T00:31:53.875Z,12.70
2019-04-03T00:34:24.003Z,12.70
2019-04-03T00:36:54.829Z,12.70
2019-04-03T00:39:24.914Z,12.70
2019-04-03T00:41:55.148Z,12.70
2019-04-03T00:44:24.897Z,12.70
2019-04-03T00:46:55.591Z,12.70
2019-04-03T00:49:26.480Z,12.70
2019-04-03T00:51:58.042Z,12.70
2019-04-03T00:54:30.596Z,12.70
2019-04-03T00:56:59.401Z,12.70
2019-04-03T00:59:29.197Z,12.70
2019-04-03T01:01:58.922Z,12.80
2019-04-03T01:04:29.726Z,12.80
2019-04-03T01:06:59.513Z,12.80
2019-04-03T01:09:29.923Z,12.80
2019-04-03T01:12:00.907Z,12.70
2019-04-03T01:14:31.581Z,12.80
2019-04-03T01:17:04.079Z,12.80
2019-04-03T01:19:36.106Z,12.80
2019-04-03T01:22:05.658Z,12.80
2019-04-03T01:24:36.771Z,12.80
2019-04-03T01:27:08.283Z,12.80
2019-04-03T01:29:42.224Z,12.80
2019-04-03T01:32:11.310Z,12.80
2019-04-03T01:34:41.038Z,12.80
2019-04-03T01:37:10.786Z,12.80
2019-04-03T01:39:40.593Z,12.80
2019-04-03T01:42:10.537Z,12.80
2019-04-03T01:44:40.901Z,12.80
2019-04-03T01:47:10.893Z,12.80
2019-04-03T01:49:44.796Z,12.80
2019-04-03T01:52:14.684Z,12.80
2019-04-03T01:54:45.445Z,12.70
2019-04-03T01:57:15.162Z,12.70
2019-04-03T01:59:44.909Z,12.70
2019-04-03T02:02:14.653Z,12.70
2019-04-03T02:04:44.434Z,12.70
2019-04-03T02:07:15.064Z,12.60
2019-04-03T02:09:46.542Z,12.60
2019-04-03T02:12:17.955Z,12.60
2019-04-03T02:14:50.955Z,12.60
2019-04-03T02:17:20.141Z,12.50
2019-04-03T02:19:49.977Z,12.50
2019-04-03T02:22:19.794Z,12.50
2019-04-03T02:24:49.589Z,12.50
2019-04-03T02:27:20.295Z,12.50
2019-04-03T02:29:50.076Z,12.50
2019-04-03T02:32:23.289Z,12.40
2019-04-03T02:34:51.298Z,12.40
2019-04-03T02:37:21.113Z,12.40
2019-04-03T02:39:50.974Z,12.40
2019-04-03T02:42:20.781Z,12.40
2019-04-03T02:44:51.713Z,12.30
2019-04-03T02:47:21.712Z,12.30
2019-04-03T02:49:51.423Z,12.30
2019-04-03T02:52:24.317Z,12.30
2019-04-03T02:54:53.002Z,12.20
2019-04-03T02:57:22.830Z,12.20
2019-04-03T02:59:52.703Z,12.20
2019-04-03T03:02:22.629Z,12.20
2019-04-03T03:04:54.672Z,12.20
2019-04-03T03:07:24.040Z,12.10
2019-04-03T03:09:54.306Z,12.10
2019-04-03T03:12:27.640Z,12.10
2019-04-03T03:14:59.488Z,12.10
2019-04-03T03:17:30.190Z,12.10
2019-04-03T03:20:06.941Z,12.10
2019-04-03T03:22:34.918Z,12.10
2019-04-03T03:25:06.075Z,12.10
2019-04-03T03:27:40.629Z,12.10
2019-04-03T03:30:31.708Z,12.00
2019-04-03T03:32:40.953Z,12.00
2019-04-03T03:35:15.092Z,12.00
2019-04-03T03:37:42.905Z,12.00
2019-04-03T03:40:15.427Z,12.00
2019-04-03T03:42:44.842Z,12.00
2019-04-03T03:45:18.446Z,12.00
2019-04-03T03:47:46.639Z,11.90
2019-04-03T03:50:22.402Z,11.90
2019-04-03T03:52:51.290Z,11.90
2019-04-03T03:55:24.378Z,11.90
2019-04-03T03:57:54.478Z,11.90
2019-04-03T04:00:24.931Z,11.80
2019-04-03T04:02:55.303Z,11.80
2019-04-03T04:05:25.294Z,11.80
2019-04-03T04:07:55.825Z,11.80
2019-04-03T04:10:28.652Z,11.80
2019-04-03T04:13:00.143Z,11.70
2019-04-03T04:15:31.081Z,11.70
2019-04-03T04:18:01.526Z,11.70
2019-04-03T04:20:32.211Z,11.70
2019-04-03T04:23:02.966Z,11.60
2019-04-03T04:25:33.050Z,11.60
2019-04-03T04:28:03.170Z,11.60
2019-04-03T04:30:33.535Z,11.60
2019-04-03T04:33:03.518Z,11.50
2019-04-03T04:35:33.298Z,11.50
2019-04-03T04:38:03.181Z,11.50
2019-04-03T04:40:32.888Z,11.50
2019-04-03T04:43:04.137Z,11.50
2019-04-03T04:45:34.424Z,11.50
2019-04-03T04:48:04.605Z,11.40
2019-04-03T04:50:34.481Z,11.40
2019-04-03T04:53:04.390Z,11.40
2019-04-03T04:55:34.996Z,11.30
2019-04-03T04:58:05.920Z,11.30
2019-04-03T05:00:35.751Z,11.40
2019-04-03T05:03:05.795Z,11.40
2019-04-03T05:05:35.896Z,11.40
2019-04-03T05:08:05.743Z,11.30
2019-04-03T05:10:36.913Z,11.30
2019-04-03T05:13:07.238Z,11.40
2019-04-03T05:15:37.317Z,11.40
2019-04-03T05:18:07.091Z,11.40
2019-04-03T05:20:36.971Z,11.30
2019-04-03T05:23:06.778Z,11.40
2019-04-03T05:25:37.742Z,11.30
2019-04-03T05:28:07.651Z,11.40
2019-04-03T05:30:38.028Z,11.40
2019-04-03T05:33:10.620Z,11.40
2019-04-03T05:35:39.238Z,11.30
2019-04-03T05:38:09.028Z,11.40
2019-04-03T05:40:38.846Z,11.40
2019-04-03T05:43:08.633Z,11.40
2019-04-03T05:45:40.933Z,11.40
2019-04-03T05:48:13.017Z,11.40
2019-04-03T05:50:41.569Z,11.40
2019-04-03T05:53:11.533Z,11.50
2019-04-03T05:55:41.755Z,11.40
2019-04-03T05:58:11.699Z,11.50
2019-04-03T06:00:41.501Z,11.50
2019-04-03T06:03:11.233Z,11.50
2019-04-03T06:05:41.850Z,11.50
2019-04-03T06:08:12.737Z,11.50
2019-04-03T06:10:42.914Z,11.60
2019-04-03T06:13:12.958Z,11.60
2019-04-03T06:15:42.814Z,11.60
2019-04-03T06:18:12.621Z,11.60
2019-04-03T06:20:43.604Z,11.60
2019-04-03T06:23:13.929Z,11.60
2019-04-03T06:25:43.752Z,11.60
2019-04-03T06:28:13.797Z,11.70
2019-04-03T06:30:43.733Z,11.70
2019-04-03T06:33:13.809Z,11.70
2019-04-03T06:35:45.226Z,11.70
2019-04-03T06:38:15.634Z,11.70
2019-04-03T06:40:45.557Z,11.70
2019-04-03T06:43:16.928Z,11.70
2019-04-03T06:45:46.791Z,11.70
2019-04-03T06:48:16.514Z,11.70
2019-04-03T06:50:46.271Z,11.70
2019-04-03T06:53:16.066Z,11.70
2019-04-03T06:55:45.875Z,11.80
2019-04-03T06:58:15.758Z,11.70
2019-04-03T07:00:47.319Z,11.80
2019-04-03T07:03:17.743Z,11.70
2019-04-03T07:05:47.602Z,11.80
2019-04-03T07:08:28.645Z,11.80
2019-04-03T07:10:55.190Z,11.80
2019-04-03T07:13:20.957Z,11.80
2019-04-03T07:15:51.016Z,11.80
2019-04-03T07:18:20.721Z,11.80
2019-04-03T07:20:51.871Z,11.80
2019-04-03T07:23:22.001Z,11.80
2019-04-03T07:25:51.745Z,11.80
2019-04-03T07:28:21.537Z,11.90
2019-04-03T07:30:53.567Z,11.90
2019-04-03T07:33:24.102Z,11.90
2019-04-03T07:35:54.193Z,11.90
2019-04-03T07:38:24.620Z,11.90
2019-04-03T07:40:54.702Z,12.00
2019-04-03T07:43:26.691Z,12.00
2019-04-03T07:45:56.270Z,12.00
2019-04-03T07:48:26.212Z,12.10
2019-04-03T07:50:56.232Z,12.10
2019-04-03T07:53:27.213Z,12.10
2019-04-03T07:55:57.265Z,12.10
2019-04-03T07:58:30.393Z,12.10
2019-04-03T08:00:59.035Z,12.20
2019-04-03T08:03:29.014Z,12.20
2019-04-03T08:05:59.219Z,12.20
2019-04-03T08:08:29.559Z,12.20
2019-04-03T08:11:01.487Z,12.20
2019-04-03T08:13:31.222Z,12.20
2019-04-03T08:16:01.695Z,12.20
2019-04-03T08:18:31.888Z,12.20
2019-04-03T08:21:02.301Z,12.20
2019-04-03T08:23:32.548Z,12.10
2019-04-03T08:26:02.883Z,12.10
2019-04-03T08:28:32.690Z,12.10
2019-04-03T08:31:02.583Z,12.00
2019-04-03T08:33:33.546Z,12.00
2019-04-03T08:36:06.641Z,12.00
2019-04-03T08:38:35.343Z,11.90
2019-04-03T08:41:05.282Z,11.90
2019-04-03T08:43:35.556Z,11.90
2019-04-03T08:46:05.514Z,11.90
2019-04-03T08:48:35.438Z,11.90
2019-04-03T08:51:06.057Z,11.90
2019-04-03T08:53:38.542Z,11.90
2019-04-03T08:56:07.776Z,11.90
2019-04-03T08:58:37.710Z,11.90
2019-04-03T09:01:10.314Z,11.90
2019-04-03T09:03:38.845Z,11.90
2019-04-03T09:06:08.642Z,11.90
2019-04-03T09:08:38.468Z,11.90
2019-04-03T09:11:08.329Z,12.00
2019-04-03T09:13:38.222Z,12.00
2019-04-03T09:16:10.129Z,12.00
2019-04-03T09:18:39.751Z,12.00
2019-04-03T09:21:09.719Z,12.10
2019-04-03T09:23:39.490Z,12.10
2019-04-03T09:26:09.302Z,12.10
2019-04-03T09:28:41.241Z,12.10
2019-04-03T09:31:10.737Z,12.10
2019-04-03T09:33:40.627Z,12.10
2019-04-03T09:36:10.509Z,12.10
2019-04-03T09:38:41.526Z,12.20
2019-04-03T09:41:11.995Z,12.20
2019-04-03T09:43:42.103Z,12.30
2019-04-03T09:46:12.276Z,12.30
2019-04-03T09:48:42.410Z,12.40
2019-04-03T09:51:12.423Z,12.50
2019-04-03T09:53:42.485Z,12.50
2019-04-03T09:56:12.294Z,12.60
2019-04-03T09:58:42.086Z,12.50
2019-04-03T10:01:15.705Z,12.60
2019-04-03T10:03:44.708Z,12.60
2019-04-03T10:06:14.588Z,12.70
2019-04-03T10:08:44.471Z,12.80
2019-04-03T10:11:15.512Z,13.00
2019-04-03T10:13:45.600Z,13.20
2019-04-03T10:16:16.702Z,13.40
2019-04-03T10:18:47.150Z,13.50
2019-04-03T10:21:17.793Z,13.60
2019-04-03T10:23:48.782Z,13.60
2019-04-03T10:26:18.766Z,13.70
2019-04-03T10:28:48.609Z,13.70
2019-04-03T10:31:18.399Z,13.60
2019-04-03T10:33:48.129Z,13.60
2019-04-03T10:36:18.621Z,13.60
2019-04-03T10:38:49.240Z,13.50
2019-04-03T10:41:19.517Z,13.50
2019-04-03T10:43:49.861Z,13.40
2019-04-03T10:46:20.103Z,13.40
2019-04-03T10:48:50.105Z,13.40
2019-04-03T10:51:19.841Z,13.40
2019-04-03T10:53:51.644Z,13.40
2019-04-03T10:56:21.204Z,13.40
2019-04-03T10:58:51.145Z,13.40
2019-04-03T11:01:21.275Z,13.50
2019-04-03T11:03:51.147Z,13.40
2019-04-03T11:06:21.225Z,13.40
2019-04-03T11:08:51.198Z,13.40
2019-04-03T11:11:21.274Z,13.40
2019-04-03T11:13:51.223Z,13.30
2019-04-03T11:16:21.404Z,13.30
2019-04-03T11:18:58.568Z,13.30
2019-04-03T11:21:22.751Z,13.20
2019-04-03T11:23:52.600Z,13.20
2019-04-03T11:26:24.515Z,13.20
2019-04-03T11:28:54.153Z,13.20
2019-04-03T11:31:27.936Z,13.20
2019-04-03T11:33:55.531Z,13.30
2019-04-03T11:36:29.447Z,13.30
2019-04-03T11:39:10.457Z,13.40
2019-04-03T11:41:28.461Z,13.40
2019-04-03T11:43:58.548Z,13.50
2019-04-03T11:46:28.478Z,13.50
2019-04-03T11:48:58.201Z,13.50
2019-04-03T11:51:29.537Z,13.50
2019-04-03T11:53:59.583Z,13.50
2019-04-03T11:56:29.580Z,13.50
2019-04-03T11:59:00.602Z,13.50
2019-04-03T12:01:30.924Z,13.50
2019-04-03T12:04:00.673Z,13.50
2019-04-03T12:06:30.404Z,13.50
2019-04-03T12:09:01.217Z,13.50
2019-04-03T12:11:32.799Z,13.60
2019-04-03T12:14:02.679Z,13.60
2019-04-03T12:16:32.634Z,13.70
2019-04-03T12:19:04.436Z,13.70
2019-04-03T12:21:34.493Z,13.70
2019-04-03T12:24:04.873Z,13.80
2019-04-03T12:26:35.776Z,13.90
2019-04-03T12:29:07.490Z,14.00
2019-04-03T12:31:37.342Z,14.00
2019-04-03T12:34:07.538Z,14.10
2019-04-03T12:36:37.628Z,14.20
2019-04-03T12:39:13.597Z,14.20
2019-04-03T12:41:43.783Z,14.30
2019-04-03T12:44:14.006Z,14.40
2019-04-03T12:46:43.857Z,14.50
2019-04-03T12:49:13.838Z,14.70
2019-04-03T12:51:44.527Z,14.80
2019-04-03T12:54:14.386Z,14.80
2019-04-03T12:56:45.181Z,14.90
2019-04-03T12:59:15.053Z,14.90
2019-04-03T13:01:44.921Z,15.00
2019-04-03T13:04:14.722Z,15.00
2019-04-03T13:06:44.535Z,14.90
2019-04-03T13:09:15.026Z,14.80
2019-04-03T13:11:45.232Z,14.70
2019-04-03T13:14:23.830Z,14.70
2019-04-03T13:16:47.553Z,14.70
2019-04-03T13:19:17.417Z,14.60
2019-04-03T13:21:47.209Z,14.50
2019-04-03T13:24:17.601Z,14.50
2019-04-03T13:26:47.450Z,14.40
2019-04-03T13:29:17.494Z,14.30
2019-04-03T13:31:47.749Z,14.30
2019-04-03T13:34:17.628Z,14.30
2019-04-03T13:36:50.459Z,14.20
2019-04-03T13:39:19.056Z,14.20
2019-04-03T13:41:48.838Z,14.20
2019-04-03T13:44:18.745Z,14.30
2019-04-03T13:46:48.888Z,14.30
2019-04-03T13:49:19.631Z,14.40
2019-04-03T13:51:50.637Z,14.40
2019-04-03T13:54:20.610Z,14.50
2019-04-03T13:56:53.021Z,14.50
2019-04-03T13:59:23.042Z,14.60
2019-04-03T14:01:53.392Z,14.60
2019-04-03T14:04:23.555Z,14.60
2019-04-03T14:06:53.901Z,14.60
2019-04-03T14:09:24.950Z,14.70
2019-04-03T14:11:54.934Z,14.70
2019-04-03T14:14:24.737Z,14.70
2019-04-03T14:16:54.829Z,14.80
2019-04-03T14:19:25.339Z,14.80
2019-04-03T14:21:58.787Z,14.80
2019-04-03T14:24:39.394Z,14.80
2019-04-03T14:26:58.891Z,14.80
2019-04-03T14:29:29.621Z,14.90
2019-04-03T14:31:59.978Z,14.90
2019-04-03T14:34:30.667Z,14.90
2019-04-03T14:37:00.812Z,14.90
2019-04-03T14:39:30.883Z,14.90
2019-04-03T14:42:00.869Z,14.90
2019-04-03T14:44:30.729Z,14.80
2019-04-03T14:47:00.498Z,14.80
2019-04-03T14:49:31.751Z,14.80
2019-04-03T14:52:01.807Z,14.70
2019-04-03T14:54:31.750Z,14.60
2019-04-03T14:57:11.113Z,14.50
2019-04-03T14:59:35.192Z,14.50
2019-04-03T15:02:04.817Z,14.40
2019-04-03T15:04:37.121Z,14.30
2019-04-03T15:07:09.252Z,14.30
2019-04-03T15:09:38.787Z,14.20
2019-04-03T15:12:12.195Z,14.20
2019-04-03T15:14:41.406Z,14.10
2019-04-03T15:17:11.561Z,14.10
2019-04-03T15:19:43.141Z,14.00
2019-04-03T15:22:13.249Z,14.00
2019-04-03T15:24:44.160Z,13.90
2019-04-03T15:27:14.851Z,13.90
2019-04-03T15:29:45.228Z,13.80
2019-04-03T15:32:16.111Z,13.80
2019-04-03T15:34:46.633Z,13.90
2019-04-03T15:37:16.435Z,13.90
2019-04-03T15:39:49.038Z,13.90
2019-04-03T15:42:17.671Z,13.90
2019-04-03T15:44:51.184Z,13.90
2019-04-03T15:47:34.314Z,13.80
2019-04-03T15:49:52.221Z,13.90
2019-04-03T15:52:22.912Z,13.80
2019-04-03T15:54:53.192Z,13.80
2019-04-03T15:57:23.223Z,13.80
2019-04-03T15:59:53.352Z,13.90
2019-04-03T16:02:23.682Z,13.90
2019-04-03T16:04:53.740Z,13.90
2019-04-03T16:07:23.653Z,13.90
2019-04-03T16:09:53.593Z,13.90
2019-04-03T16:12:23.451Z,13.90
2019-04-03T16:14:53.276Z,13.80
2019-04-03T16:17:23.080Z,13.80
2019-04-03T16:19:53.104Z,13.80
2019-04-03T16:22:23.875Z,13.70
2019-04-03T16:24:54.468Z,13.70
2019-04-03T16:27:24.354Z,13.60
2019-04-03T16:29:54.318Z,13.60
2019-04-03T16:32:27.335Z,13.60
2019-04-03T16:34:55.587Z,13.50
2019-04-03T16:37:25.537Z,13.60
2019-04-03T16:39:57.258Z,13.50
2019-04-03T16:42:27.655Z,13.50
2019-04-03T16:44:58.233Z,13.50
2019-04-03T16:47:28.329Z,13.40
2019-04-03T16:49:58.121Z,13.40
2019-04-03T16:52:30.150Z,13.40
2019-04-03T16:54:59.335Z,13.40
2019-04-03T16:57:29.167Z,13.40
2019-04-03T16:59:58.961Z,13.40
2019-04-03T17:02:29.822Z,13.40
2019-04-03T17:04:59.860Z,13.30
2019-04-03T17:07:29.720Z,13.30
2019-04-03T17:09:59.552Z,13.30
2019-04-03T17:12:29.321Z,13.30
2019-04-03T17:14:59.329Z,13.20
2019-04-03T17:17:29.248Z,13.20
2019-04-03T17:19:59.046Z,13.20
2019-04-03T17:22:28.793Z,13.20
2019-04-03T17:24:58.999Z,13.20
2019-04-03T17:27:30.190Z,13.10
2019-04-03T17:30:00.253Z,13.10
2019-04-03T17:32:31.194Z,13.10
2019-04-03T17:35:01.551Z,13.10
2019-04-03T17:37:31.911Z,13.10
2019-04-03T17:40:04.080Z,13.10
2019-04-03T17:42:34.330Z,13.00
2019-04-03T17:45:04.346Z,13.00
2019-04-03T17:47:34.149Z,13.00
2019-04-03T17:50:06.194Z,13.00
2019-04-03T17:52:36.967Z,12.90
2019-04-03T17:55:10.048Z,12.90
2019-04-03T17:57:39.927Z,12.90
2019-04-03T18:00:12.326Z,12.80
2019-04-03T18:02:42.189Z,12.80
2019-04-03T18:05:12.144Z,12.80
2019-04-03T18:07:43.190Z,12.80
2019-04-03T18:10:13.470Z,12.70
2019-04-03T18:12:45.608Z,12.70
2019-04-03T18:15:15.882Z,12.70
2019-04-03T18:17:45.745Z,12.70
2019-04-03T18:20:15.829Z,12.70
2019-04-03T18:22:45.786Z,12.70
2019-04-03T18:25:15.794Z,12.60
2019-04-03T18:27:45.813Z,12.60
2019-04-03T18:30:15.790Z,12.60
2019-04-03T18:32:46.033Z,12.60
2019-04-03T18:35:16.634Z,12.60
2019-04-03T18:37:46.571Z,12.60
2019-04-03T18:40:18.674Z,12.50
2019-04-03T18:42:50.271Z,12.50
2019-04-03T18:45:25.591Z,12.50
2019-04-03T18:47:51.416Z,12.40
2019-04-03T18:50:21.389Z,12.40
2019-04-03T18:52:51.185Z,12.40
2019-04-03T18:55:20.967Z,12.30
2019-04-03T18:57:50.678Z,12.30
2019-04-03T19:00:21.626Z,12.30
2019-04-03T19:02:51.483Z,12.20
2019-04-03T19:05:21.304Z,12.20
2019-04-03T19:07:51.086Z,12.10
2019-04-03T19:10:23.153Z,12.10
2019-04-03T19:12:52.601Z,12.10
2019-04-03T19:15:22.519Z,12.00
2019-04-03T19:18:00.551Z,12.00
2019-04-03T19:20:27.794Z,11.90
2019-04-03T19:23:02.919Z,11.90
2019-04-03T19:25:29.670Z,11.80
2019-04-03T19:28:00.091Z,11.80
2019-04-03T19:30:29.954Z,11.80
2019-04-03T19:33:00.108Z,11.70
2019-04-03T19:35:29.961Z,11.70
2019-04-03T19:37:59.905Z,11.70
2019-04-03T19:40:29.758Z,11.70
2019-04-03T19:42:59.555Z,11.60
2019-04-03T19:45:29.383Z,11.60
2019-04-03T19:47:59.234Z,11.60
2019-04-03T19:50:31.473Z,11.60
2019-04-03T19:53:00.767Z,11.60
2019-04-03T19:55:30.598Z,11.50
2019-04-03T19:58:00.413Z,11.50
2019-04-03T20:00:30.346Z,11.50
2019-04-03T20:03:00.256Z,11.40
2019-04-03T20:05:31.404Z,11.40
2019-04-03T20:08:01.834Z,11.40
2019-04-03T20:10:33.790Z,11.40
2019-04-03T20:13:03.635Z,11.40
2019-04-03T20:15:33.443Z,11.30
2019-04-03T20:18:03.337Z,11.30
2019-04-03T20:20:33.662Z,11.30
2019-04-03T20:23:03.717Z,11.30
2019-04-03T20:25:33.438Z,11.30
2019-04-03T20:28:03.286Z,11.30
2019-04-03T20:30:35.330Z,11.30
2019-04-03T20:33:05.189Z,11.20
2019-04-03T20:35:34.989Z,11.20
2019-04-03T20:38:04.785Z,11.20
2019-04-03T20:40:35.709Z,11.20
2019-04-03T20:43:05.577Z,11.20
2019-04-03T20:45:35.706Z,11.20
2019-04-03T20:48:05.574Z,11.20
2019-04-03T20:50:37.732Z,11.20
2019-04-03T20:53:06.917Z,11.20
2019-04-03T20:55:36.728Z,11.20
2019-04-03T20:58:06.829Z,11.20
2019-04-03T21:00:36.767Z,11.10
2019-04-03T21:03:06.577Z,11.10
2019-04-03T21:05:36.297Z,11.10
2019-04-03T21:08:06.173Z,11.10
2019-04-03T21:10:35.992Z,11.10
2019-04-03T21:13:06.903Z,11.10
2019-04-03T21:15:37.435Z,11.10
2019-04-03T21:18:07.153Z,11.10
2019-04-03T21:20:36.985Z,11.00
2019-04-03T21:23:06.762Z,11.00
2019-04-03T21:25:36.662Z,11.00
2019-04-03T21:28:08.982Z,11.00
2019-04-03T21:30:39.438Z,11.00
2019-04-03T21:33:09.200Z,11.00
2019-04-03T21:35:39.043Z,11.00
2019-04-03T21:38:10.647Z,11.00
2019-04-03T21:40:41.153Z,11.00
2019-04-03T21:43:10.954Z,10.90
2019-04-03T21:45:40.677Z,10.90
2019-04-03T21:48:11.942Z,10.90
2019-04-03T21:50:41.878Z,10.90
2019-04-03T21:53:11.613Z,10.90
2019-04-03T21:55:41.593Z,10.80
2019-04-03T21:58:11.390Z,10.80
2019-04-03T22:01:25.329Z,10.80
2019-04-03T22:03:55.201Z,10.80
2019-04-03T22:06:27.671Z,10.80
2019-04-03T22:08:59.674Z,10.80
2019-04-03T22:11:28.174Z,10.80
2019-04-03T22:13:57.902Z,10.80
2019-04-03T22:16:27.713Z,10.80
2019-04-03T22:18:57.442Z,10.70
2019-04-03T22:21:27.229Z,10.80
2019-04-03T22:23:57.102Z,10.70
2019-04-03T22:26:26.904Z,10.70
2019-04-03T22:28:56.629Z,10.70
2019-04-03T22:31:26.447Z,10.70
2019-04-03T22:33:58.628Z,10.70
2019-04-03T22:36:27.777Z,10.70
2019-04-03T22:38:57.573Z,10.60
2019-04-03T22:41:28.389Z,10.60
2019-04-03T22:43:58.201Z,10.60
2019-04-03T22:46:27.989Z,10.60
2019-04-03T22:48:58.091Z,10.60
2019-04-03T22:51:30.315Z,10.60
2019-04-03T22:54:00.168Z,10.60
2019-04-03T22:56:30.004Z,10.50
2019-04-03T22:58:59.736Z,10.50
2019-04-03T23:01:29.900Z,10.50
2019-04-03T23:04:00.366Z,10.50
2019-04-03T23:06:30.077Z,10.40
2019-04-03T23:08:59.809Z,10.40
2019-04-03T23:11:30.127Z,10.40
2019-04-03T23:14:02.450Z,10.40
2019-04-03T23:16:32.160Z,10.30
2019-04-03T23:19:01.957Z,10.30
2019-04-03T23:21:31.830Z,10.30
2019-04-03T23:24:01.636Z,10.30
2019-04-03T23:26:32.062Z,10.30
2019-04-03T23:29:03.078Z,10.30
2019-04-03T23:31:34.138Z,10.30
2019-04-03T23:34:03.950Z,10.30
2019-04-03T23:36:33.665Z,10.30
2019-04-03T23:39:05.337Z,10.30
2019-04-03T23:41:36.570Z,10.30
2019-04-03T23:44:06.777Z,10.30
2019-04-03T23:46:36.725Z,10.20
2019-04-03T23:49:06.470Z,10.20
2019-04-03T23:51:36.338Z,10.20
2019-04-03T23:54:06.163Z,10.20
2019-04-03T23:56:36.996Z,10.20
2019-04-03T23:59:07.519Z,10.20
